VOZ weather

Voronezh International Airport
Voronezh, Voronezh Oblast, Russia

Public forecast

Using degrees Celsius for public forecast. Weather courtesy of forecast.io.

METAR (pilot weather report)

Retrieved 2019/08/19 15:30 UTC (12 minutes ago):

UUOO 191530Z 32003MPS CAVOK 25/12 Q1019 R30/090070 NOSIG RMK QFE750

TAF (pilot weather forecast)

Forecast is more than 12 hours old.

Retrieved 2015/08/10 18:12 UTC (4 years ago):

TAF TAF UUOO 101700Z 1018/1106 33003MPS CAVOK